createdAt,value
2018-06-03T00:01:52.688Z,15.17
2018-06-03T00:04:23.443Z,13.10
2018-06-03T00:06:53.372Z,15.30
2018-06-03T00:09:23.308Z,13.90
2018-06-03T00:11:53.468Z,14.70
2018-06-03T00:14:24.149Z,13.20
2018-06-03T00:16:54.075Z,14.80
2018-06-03T00:19:24.060Z,14.60
2018-06-03T00:21:53.991Z,14.90
2018-06-03T00:24:24.439Z,14.37
2018-06-03T00:26:54.583Z,13.17
2018-06-03T00:29:24.498Z,14.53
2018-06-03T00:31:54.445Z,12.67
2018-06-03T00:34:24.377Z,13.77
2018-06-03T00:36:54.312Z,14.27
2018-06-03T00:39:24.248Z,13.43
2018-06-03T00:41:54.187Z,14.90
2018-06-03T00:44:24.317Z,16.77
2018-06-03T00:46:54.168Z,13.67
2018-06-03T00:49:23.979Z,15.47
2018-06-03T00:51:53.893Z,13.97
2018-06-03T00:54:24.467Z,14.13
2018-06-03T00:57:17.749Z,15.07
2018-06-03T00:59:47.677Z,15.80
2018-06-03T01:02:17.401Z,15.20
2018-06-03T01:04:47.139Z,13.87
2018-06-03T01:07:16.868Z,15.80
2018-06-03T01:09:48.029Z,15.20
2018-06-03T01:12:17.962Z,17.90
2018-06-03T01:14:47.860Z,13.63
2018-06-03T01:17:17.619Z,15.90
2018-06-03T01:19:47.350Z,15.57
2018-06-03T01:22:17.078Z,15.90
2018-06-03T01:24:47.016Z,14.10
2018-06-03T01:27:17.253Z,16.67
2018-06-03T01:29:47.796Z,13.93
2018-06-03T01:32:17.538Z,15.23
2018-06-03T01:34:47.261Z,17.27
2018-06-03T01:37:17.192Z,16.80
2018-06-03T01:39:46.921Z,16.53
2018-06-03T01:42:16.647Z,21.00
2018-06-03T01:44:46.586Z,16.00
2018-06-03T01:47:18.158Z,17.00
2018-06-03T01:49:47.890Z,17.03
2018-06-03T01:52:18.635Z,19.30
2018-06-03T01:54:48.365Z,17.47
2018-06-03T01:57:18.094Z,17.87
2018-06-03T01:59:48.030Z,17.77
2018-06-03T02:02:18.025Z,17.23
2018-06-03T02:04:47.895Z,19.80
2018-06-03T02:07:17.622Z,18.10
2018-06-03T02:09:47.354Z,18.77
2018-06-03T02:12:17.088Z,17.33
2018-06-03T02:14:47.017Z,18.07
2018-06-03T02:17:16.743Z,17.67
2018-06-03T02:19:46.470Z,19.47
2018-06-03T02:22:16.203Z,18.50
2018-06-03T02:24:45.944Z,18.93
2018-06-03T02:27:16.477Z,17.73
2018-06-03T02:29:46.822Z,16.90
2018-06-03T02:32:16.552Z,17.17
2018-06-03T02:34:46.276Z,17.20
2018-06-03T02:37:17.444Z,17.87
2018-06-03T02:39:47.176Z,14.90
2018-06-03T02:42:16.903Z,17.17
2018-06-03T02:44:46.631Z,17.13
2018-06-03T02:47:16.495Z,17.33
2018-06-03T02:49:47.117Z,19.17
2018-06-03T02:52:17.867Z,18.30
2018-06-03T02:54:47.598Z,16.67
2018-06-03T02:57:17.324Z,16.70
2018-06-03T02:59:47.261Z,17.93
2018-06-03T03:02:16.988Z,17.77
2018-06-03T03:04:46.720Z,17.20
2018-06-03T03:07:16.446Z,16.60
2018-06-03T03:09:47.608Z,16.87
2018-06-03T03:12:17.336Z,16.23
2018-06-03T03:14:47.273Z,17.17
2018-06-03T03:17:17.819Z,15.27
2018-06-03T03:19:48.776Z,16.40
2018-06-03T03:22:18.507Z,18.00
2018-06-03T03:24:49.018Z,14.70
2018-06-03T03:27:19.391Z,15.83
2018-06-03T03:29:50.830Z,14.17
2018-06-03T03:32:21.313Z,16.60
2018-06-03T03:34:51.039Z,17.00
2018-06-03T03:37:20.769Z,13.97
2018-06-03T03:39:50.717Z,14.63
2018-06-03T03:42:20.535Z,16.20
2018-06-03T03:44:50.370Z,14.93
2018-06-03T03:47:21.922Z,13.70
2018-06-03T03:49:52.467Z,15.20
2018-06-03T03:52:22.219Z,14.50
2018-06-03T03:54:52.159Z,15.30
2018-06-03T03:57:22.091Z,14.87
2018-06-03T03:59:51.814Z,14.50
2018-06-03T04:02:21.546Z,16.17
2018-06-03T04:04:51.889Z,15.90
2018-06-03T04:07:21.622Z,14.57
2018-06-03T04:09:51.553Z,16.40
2018-06-03T04:12:21.381Z,14.77
2018-06-03T04:14:51.215Z,15.43
2018-06-03T04:17:21.971Z,13.80
2018-06-03T04:19:51.805Z,15.33
2018-06-03T04:22:21.713Z,14.77
2018-06-03T04:24:51.566Z,16.73
2018-06-03T04:27:21.295Z,16.43
2018-06-03T04:29:51.209Z,14.83
2018-06-03T04:32:21.156Z,17.27
2018-06-03T04:34:51.921Z,14.40
2018-06-03T04:37:21.646Z,15.80
2018-06-03T04:39:51.375Z,17.50
2018-06-03T04:42:21.209Z,16.23
2018-06-03T04:44:51.606Z,16.80
2018-06-03T04:47:21.491Z,16.77
2018-06-03T04:49:51.215Z,14.90
2018-06-03T04:52:21.149Z,14.50
2018-06-03T04:54:50.879Z,14.30
2018-06-03T04:57:20.792Z,14.80
2018-06-03T04:59:50.653Z,15.77
2018-06-03T05:02:20.383Z,14.37
2018-06-03T05:04:51.129Z,16.30
2018-06-03T05:07:20.858Z,14.97
2018-06-03T05:09:50.598Z,14.37
2018-06-03T05:12:20.320Z,14.50
2018-06-03T05:14:50.048Z,15.90
2018-06-03T05:17:19.899Z,15.20
2018-06-03T05:19:49.811Z,16.10
2018-06-03T05:22:19.748Z,14.07
2018-06-03T05:24:49.480Z,16.10
2018-06-03T05:27:19.102Z,14.70
2018-06-03T05:29:49.040Z,14.87
2018-06-03T05:32:18.761Z,14.90
2018-06-03T05:34:48.495Z,15.37
2018-06-03T05:37:18.227Z,15.37
2018-06-03T05:39:48.164Z,14.07
2018-06-03T05:42:18.085Z,14.70
2018-06-03T05:44:48.024Z,13.73
2018-06-03T05:47:17.935Z,14.53
2018-06-03T05:49:47.687Z,13.80
2018-06-03T05:52:19.121Z,14.20
2018-06-03T05:54:48.992Z,14.00
2018-06-03T05:57:18.780Z,13.40
2018-06-03T05:59:48.544Z,14.77
2018-06-03T06:02:18.494Z,14.50
2018-06-03T06:04:48.831Z,13.67
2018-06-03T06:07:18.755Z,15.30
2018-06-03T06:09:48.489Z,14.33
2018-06-03T06:12:18.950Z,12.43
2018-06-03T06:14:48.855Z,12.90
2018-06-03T06:17:18.794Z,14.47
2018-06-03T06:19:48.523Z,15.23
2018-06-03T06:22:18.423Z,14.40
2018-06-03T06:24:48.381Z,12.90
2018-06-03T06:27:18.315Z,14.80
2018-06-03T06:29:48.665Z,15.20
2018-06-03T06:32:18.486Z,14.37
2018-06-03T06:34:48.546Z,14.50
2018-06-03T06:37:18.648Z,15.30
2018-06-03T06:39:48.595Z,14.70
2018-06-03T06:42:18.530Z,14.10
2018-06-03T06:44:49.179Z,16.57
2018-06-03T06:47:19.216Z,16.10
2018-06-03T06:49:49.358Z,15.63
2018-06-03T06:52:19.079Z,15.47
2018-06-03T06:54:50.466Z,14.87
2018-06-03T06:57:20.298Z,17.83
2018-06-03T06:59:50.216Z,16.53
2018-06-03T07:02:20.158Z,16.07
2018-06-03T07:05:52.527Z,15.53
2018-06-03T07:08:22.282Z,16.63
2018-06-03T07:10:52.023Z,16.20
2018-06-03T07:13:21.849Z,14.50
2018-06-03T07:15:51.987Z,17.03
2018-06-03T07:18:22.020Z,15.77
2018-06-03T07:20:51.925Z,15.70
2018-06-03T07:23:21.947Z,14.10
2018-06-03T07:25:51.954Z,15.70
2018-06-03T07:28:22.476Z,16.30
2018-06-03T07:30:52.408Z,16.07
2018-06-03T07:33:22.344Z,15.13
2018-06-03T07:35:52.468Z,14.37
2018-06-03T07:38:23.030Z,15.17
2018-06-03T07:40:52.944Z,14.77
2018-06-03T07:43:23.100Z,15.80
2018-06-03T07:45:53.033Z,16.30
2018-06-03T07:48:23.182Z,15.60
2018-06-03T07:50:53.299Z,14.40
2018-06-03T07:53:23.251Z,13.20
2018-06-03T07:55:53.349Z,16.10
2018-06-03T07:58:23.319Z,15.60
2018-06-03T08:00:53.452Z,13.90
2018-06-03T08:03:23.898Z,15.90
2018-06-03T08:05:53.876Z,15.30
2018-06-03T08:08:23.961Z,14.30
2018-06-03T08:10:53.909Z,13.67
2018-06-03T08:13:23.835Z,13.20
2018-06-03T08:15:53.975Z,14.97
2018-06-03T08:18:23.902Z,15.47
2018-06-03T08:20:54.308Z,15.33
2018-06-03T08:23:24.590Z,15.63
2018-06-03T08:25:54.627Z,15.47
2018-06-03T08:28:25.176Z,15.53
2018-06-03T08:30:55.104Z,15.13
2018-06-03T08:33:25.039Z,16.47
2018-06-03T08:35:56.412Z,15.80
2018-06-03T08:38:26.272Z,15.53
2018-06-03T08:40:56.280Z,15.20
2018-06-03T08:43:26.563Z,14.43
2018-06-03T08:45:56.545Z,15.83
2018-06-03T08:48:26.479Z,17.07
2018-06-03T08:50:56.768Z,17.07
2018-06-03T08:53:26.734Z,16.10
2018-06-03T08:55:56.698Z,16.10
2018-06-03T08:58:26.777Z,16.57
2018-06-03T09:00:57.179Z,15.27
2018-06-03T09:03:27.001Z,15.43
2018-06-03T09:05:57.343Z,18.10
2018-06-03T09:08:27.315Z,18.60
2018-06-03T09:10:58.096Z,16.53
2018-06-03T09:13:27.963Z,16.23
2018-06-03T09:15:58.103Z,16.77
2018-06-03T09:18:28.343Z,15.23
2018-06-03T09:20:58.483Z,16.30
2018-06-03T09:23:28.420Z,16.57
2018-06-03T09:25:58.569Z,17.50
2018-06-03T09:28:28.940Z,16.57
2018-06-03T09:31:04.260Z,17.47
2018-06-03T09:33:34.800Z,17.93
2018-06-03T09:36:04.741Z,17.43
2018-06-03T09:38:34.676Z,17.43
2018-06-03T09:41:04.792Z,16.83
2018-06-03T09:43:34.797Z,16.50
2018-06-03T09:46:04.901Z,17.47
2018-06-03T09:48:35.860Z,16.03
2018-06-03T09:51:06.006Z,16.50
2018-06-03T09:53:36.282Z,15.97
2018-06-03T09:56:06.259Z,16.07
2018-06-03T09:58:36.708Z,16.40
2018-06-03T10:01:06.814Z,15.33
2018-06-03T10:03:36.883Z,13.90
2018-06-03T10:06:07.043Z,16.60
2018-06-03T10:08:37.260Z,14.87
2018-06-03T10:11:07.396Z,16.97
2018-06-03T10:13:37.331Z,15.60
2018-06-03T10:16:07.529Z,48.10
2018-06-03T10:18:37.512Z,35.93
2018-06-03T10:21:07.541Z,24.50
2018-06-03T10:23:37.482Z,16.90
2018-06-03T10:26:07.615Z,16.13
2018-06-03T10:28:37.869Z,17.43
2018-06-03T10:31:08.071Z,17.70
2018-06-03T10:33:38.053Z,15.97
2018-06-03T10:36:08.383Z,18.50
2018-06-03T10:38:38.116Z,16.07
2018-06-03T10:41:08.451Z,17.23
2018-06-03T10:43:39.101Z,18.47
2018-06-03T10:49:07.846Z,19.00
2018-06-03T10:54:34.570Z,17.33
2018-06-03T10:57:04.439Z,17.97
2018-06-03T10:59:34.349Z,17.83
2018-06-03T11:02:04.260Z,16.53
2018-06-03T11:04:34.480Z,18.27
2018-06-03T11:07:04.510Z,18.97
2018-06-03T11:09:34.420Z,20.07
2018-06-03T11:12:04.428Z,18.20
2018-06-03T11:14:34.345Z,17.00
2018-06-03T11:17:04.258Z,28.80
2018-06-03T11:19:34.994Z,69.20
2018-06-03T11:22:05.036Z,109.40
2018-06-03T11:24:35.950Z,39.80
2018-06-03T11:27:05.860Z,36.27
2018-06-03T11:29:35.983Z,28.90
2018-06-03T11:32:06.090Z,29.13
2018-06-03T11:34:36.015Z,25.27
2018-06-03T11:37:06.082Z,26.67
2018-06-03T11:39:36.781Z,23.50
2018-06-03T11:42:07.528Z,24.60
2018-06-03T11:44:37.547Z,25.57
2018-06-03T11:47:08.049Z,23.30
2018-06-03T11:49:38.793Z,21.67
2018-06-03T11:52:10.287Z,20.67
2018-06-03T11:54:40.457Z,19.67
2018-06-03T11:57:10.568Z,19.23
2018-06-03T11:59:44.048Z,19.73
2018-06-03T12:02:16.628Z,20.13
2018-06-03T12:04:46.862Z,20.37
2018-06-03T12:07:17.189Z,19.50
2018-06-03T12:09:47.103Z,20.10
2018-06-03T12:12:17.093Z,18.37
2018-06-03T12:14:47.649Z,20.00
2018-06-03T12:17:17.715Z,17.57
2018-06-03T12:19:47.681Z,17.57
2018-06-03T12:22:17.995Z,17.90
2018-06-03T12:24:48.321Z,15.63
2018-06-03T12:27:18.593Z,18.60
2018-06-03T12:29:48.531Z,19.10
2018-06-03T12:32:19.374Z,54.10
2018-06-03T12:34:49.530Z,32.57
2018-06-03T12:37:20.569Z,27.20
2018-06-03T12:39:51.458Z,23.10
2018-06-03T12:42:21.707Z,23.27
2018-06-03T12:44:51.992Z,22.40
2018-06-03T12:47:21.969Z,20.20
2018-06-03T12:49:51.982Z,19.80
2018-06-03T12:52:22.506Z,20.47
2018-06-03T12:54:52.757Z,23.10
2018-06-03T12:57:22.966Z,20.77
2018-06-03T12:59:53.070Z,18.93
2018-06-03T13:02:23.252Z,18.20
2018-06-03T13:04:53.708Z,17.10
2018-06-03T13:07:23.716Z,16.60
2018-06-03T13:09:53.780Z,17.50
2018-06-03T13:12:24.250Z,16.77
2018-06-03T13:14:54.307Z,17.93
2018-06-03T13:17:25.926Z,16.87
2018-06-03T13:19:55.924Z,14.90
2018-06-03T13:22:26.181Z,17.53
2018-06-03T13:24:56.107Z,16.27
2018-06-03T13:27:26.329Z,19.33
2018-06-03T13:29:57.105Z,16.50
2018-06-03T13:32:28.812Z,18.00
2018-06-03T13:34:58.842Z,17.50
2018-06-03T13:37:28.945Z,18.40
2018-06-03T13:39:59.074Z,17.87
2018-06-03T13:42:29.288Z,19.97
2018-06-03T13:44:59.421Z,17.43
2018-06-03T13:47:29.552Z,19.37
2018-06-03T13:49:59.450Z,20.17
2018-06-03T13:52:29.364Z,21.13
2018-06-03T13:54:59.691Z,20.50
2018-06-03T13:57:29.810Z,19.33
2018-06-03T14:00:01.161Z,18.10
2018-06-03T14:02:31.311Z,21.03
2018-06-03T14:05:01.293Z,18.17
2018-06-03T14:07:32.872Z,19.83
2018-06-03T14:10:03.065Z,20.30
2018-06-03T14:12:33.509Z,21.87
2018-06-03T14:15:03.779Z,20.57
2018-06-03T14:17:33.734Z,19.37
2018-06-03T14:20:03.849Z,19.60
2018-06-03T14:22:33.887Z,18.80
2018-06-03T14:25:03.687Z,20.10
2018-06-03T14:27:33.806Z,23.77
2018-06-03T14:30:04.333Z,21.33
2018-06-03T14:32:34.242Z,18.07
2018-06-03T14:35:04.565Z,19.20
2018-06-03T14:37:34.787Z,20.03
2018-06-03T14:40:05.259Z,17.80
2018-06-03T14:42:35.377Z,19.10
2018-06-03T14:45:05.628Z,16.70
2018-06-03T14:47:36.901Z,14.60
2018-06-03T14:50:06.924Z,15.43
2018-06-03T14:52:37.654Z,16.50
2018-06-03T14:55:07.570Z,14.77
2018-06-03T14:57:37.788Z,13.87
2018-06-03T15:00:07.845Z,12.20
2018-06-03T15:02:37.821Z,12.90
2018-06-03T15:05:07.794Z,13.97
2018-06-03T15:07:38.417Z,12.90
2018-06-03T15:10:09.359Z,14.20
2018-06-03T15:12:39.783Z,14.17
2018-06-03T15:15:10.017Z,13.87
2018-06-03T15:17:40.582Z,14.07
2018-06-03T15:20:10.567Z,14.20
2018-06-03T15:22:40.696Z,14.30
2018-06-03T15:25:10.833Z,11.63
2018-06-03T15:27:40.830Z,14.03
2018-06-03T15:30:10.933Z,13.27
2018-06-03T15:32:40.990Z,12.47
2018-06-03T15:35:11.716Z,12.07
2018-06-03T15:37:42.183Z,11.30
2018-06-03T15:40:12.345Z,12.80
2018-06-03T15:42:42.397Z,14.23
2018-06-03T15:45:12.318Z,13.50
2018-06-03T15:47:42.446Z,12.47
2018-06-03T15:50:13.050Z,12.70
2018-06-03T15:52:43.210Z,11.67
2018-06-03T15:55:13.297Z,11.50
2018-06-03T15:57:43.330Z,13.37
2018-06-03T16:00:13.247Z,11.50
2018-06-03T16:02:43.060Z,13.73
2018-06-03T16:05:14.413Z,12.83
2018-06-03T16:07:44.897Z,15.30
2018-06-03T16:10:15.174Z,93.77
2018-06-03T16:12:45.283Z,52.80
2018-06-03T16:15:15.608Z,34.10
2018-06-03T16:17:45.700Z,24.93
2018-06-03T16:20:16.271Z,25.60
2018-06-03T16:22:46.428Z,25.00
2018-06-03T16:25:17.002Z,20.80
2018-06-03T16:27:47.016Z,21.87
2018-06-03T16:30:16.832Z,17.80
2018-06-03T16:32:46.438Z,19.27
2018-06-03T16:35:16.745Z,19.73
2018-06-03T16:37:46.860Z,19.03
2018-06-03T16:40:16.833Z,18.10
2018-06-03T16:42:46.719Z,18.53
2018-06-03T16:45:16.917Z,20.80
2018-06-03T16:47:48.658Z,19.80
2018-06-03T16:50:18.591Z,17.70
2018-06-03T16:52:49.117Z,19.00
2018-06-03T16:55:19.206Z,19.50
2018-06-03T16:57:49.151Z,17.73
2018-06-03T17:00:18.966Z,17.67
2018-06-03T17:02:48.929Z,18.90
2018-06-03T17:05:19.305Z,15.80
2018-06-03T17:07:49.819Z,16.50
2018-06-03T17:10:19.847Z,15.23
2018-06-03T17:12:49.972Z,15.70
2018-06-03T17:15:20.087Z,16.37
2018-06-03T17:17:50.336Z,16.10
2018-06-03T17:20:20.579Z,14.73
2018-06-03T17:22:50.956Z,15.90
2018-06-03T17:25:21.003Z,14.77
2018-06-03T17:27:51.356Z,13.03
2018-06-03T17:30:21.520Z,13.33
2018-06-03T17:32:51.844Z,13.87
2018-06-03T17:35:21.791Z,13.57
2018-06-03T17:37:51.984Z,13.80
2018-06-03T17:40:22.208Z,14.30
2018-06-03T17:42:53.963Z,13.03
2018-06-03T17:45:24.473Z,13.43
2018-06-03T17:47:55.224Z,11.43
2018-06-03T17:50:26.054Z,12.77
2018-06-03T17:52:55.866Z,13.47
2018-06-03T17:55:25.786Z,12.20
2018-06-03T17:57:56.369Z,11.00
2018-06-03T18:00:27.973Z,11.60
2018-06-03T18:02:58.165Z,11.80
2018-06-03T18:05:28.305Z,11.97
2018-06-03T18:07:58.438Z,11.33
2018-06-03T18:10:29.373Z,11.03
2018-06-03T18:13:00.922Z,11.63
2018-06-03T18:15:30.885Z,10.60
2018-06-03T18:18:01.153Z,10.87
2018-06-03T18:20:31.173Z,11.60
2018-06-03T18:23:01.478Z,11.50
2018-06-03T18:25:31.888Z,10.90
2018-06-03T18:28:02.140Z,11.17
2018-06-03T18:30:32.875Z,9.60
2018-06-03T18:33:02.978Z,9.30
2018-06-03T18:38:26.973Z,10.77
2018-06-03T18:40:57.151Z,9.70
2018-06-03T18:43:27.394Z,9.70
2018-06-03T18:45:57.656Z,9.60
2018-06-03T18:48:29.923Z,9.63
2018-06-03T18:50:59.986Z,10.47
2018-06-03T18:53:30.257Z,8.47
2018-06-03T18:56:00.773Z,9.30
2018-06-03T18:58:30.760Z,9.40
2018-06-03T19:01:00.828Z,9.63
2018-06-03T19:03:31.216Z,9.43
2018-06-03T19:06:01.174Z,9.57
2018-06-03T19:08:31.179Z,9.93
2018-06-03T19:11:01.080Z,9.20
2018-06-03T19:13:31.014Z,10.70
2018-06-03T19:16:01.964Z,10.00
2018-06-03T19:18:32.942Z,10.97
2018-06-03T19:21:03.218Z,9.60
2018-06-03T19:23:34.049Z,9.20
2018-06-03T19:26:04.376Z,10.90
2018-06-03T19:28:34.290Z,9.30
2018-06-03T19:31:04.408Z,10.67
2018-06-03T19:33:34.333Z,10.70
2018-06-03T19:36:04.338Z,11.43
2018-06-03T19:38:36.020Z,10.50
2018-06-03T19:41:06.339Z,10.97
2018-06-03T19:43:36.515Z,10.67
2018-06-03T19:46:06.682Z,10.83
2018-06-03T19:48:36.777Z,10.50
2018-06-03T19:51:06.896Z,10.37
2018-06-03T19:53:36.895Z,11.37
2018-06-03T19:56:06.828Z,10.40
2018-06-03T19:58:36.946Z,11.20
2018-06-03T20:01:07.007Z,10.70
2018-06-03T20:03:37.722Z,9.90
2018-06-03T20:06:07.802Z,11.43
2018-06-03T20:08:37.934Z,11.83
2018-06-03T20:11:08.358Z,12.07
2018-06-03T20:13:38.167Z,11.63
2018-06-03T20:16:08.125Z,12.30
2018-06-03T20:18:39.334Z,11.30
2018-06-03T20:21:09.310Z,11.53
2018-06-03T20:23:39.573Z,11.47
2018-06-03T20:26:09.628Z,11.07
2018-06-03T20:28:39.606Z,11.40
2018-06-03T20:31:09.621Z,10.73
2018-06-03T20:33:39.434Z,11.33
2018-06-03T20:36:09.616Z,13.00
2018-06-03T20:38:39.570Z,12.17
2018-06-03T20:41:09.587Z,11.93
2018-06-03T20:43:39.707Z,12.60
2018-06-03T20:46:09.827Z,12.13
2018-06-03T20:48:39.801Z,10.80
2018-06-03T20:51:09.755Z,9.67
2018-06-03T20:53:39.596Z,10.07
2018-06-03T20:56:09.586Z,9.57
2018-06-03T20:58:39.785Z,10.13
2018-06-03T21:01:09.958Z,10.13
2018-06-03T21:03:41.404Z,9.23
2018-06-03T21:06:11.393Z,10.53
2018-06-03T21:08:41.416Z,11.20
2018-06-03T21:11:11.428Z,10.20
2018-06-03T21:13:41.445Z,8.67
2018-06-03T21:16:11.359Z,9.00
2018-06-03T21:18:41.681Z,8.60
2018-06-03T21:21:12.397Z,8.87
2018-06-03T21:23:42.228Z,8.33
2018-06-03T21:26:12.347Z,9.37
2018-06-03T21:28:42.261Z,8.77
2018-06-03T21:31:12.746Z,9.47
2018-06-03T21:33:42.612Z,9.10
2018-06-03T21:36:12.520Z,7.83
2018-06-03T21:38:42.542Z,9.03
2018-06-03T21:41:13.703Z,9.10
2018-06-03T21:43:43.694Z,9.37
2018-06-03T21:46:14.020Z,8.40
2018-06-03T21:48:45.059Z,8.47
2018-06-03T21:51:15.207Z,7.73
2018-06-03T21:53:45.238Z,8.27
2018-06-03T21:56:15.113Z,7.50
2018-06-03T21:58:45.227Z,8.67
2018-06-03T22:01:15.292Z,9.10
2018-06-03T22:03:45.478Z,8.30
2018-06-03T22:06:15.469Z,9.23
2018-06-03T22:08:45.386Z,7.93
2018-06-03T22:11:15.518Z,8.90
2018-06-03T22:13:45.467Z,8.80
2018-06-03T22:16:15.430Z,8.10
2018-06-03T22:18:45.467Z,8.73
2018-06-03T22:21:15.583Z,7.93
2018-06-03T22:23:46.215Z,8.63
2018-06-03T22:26:16.131Z,9.20
2018-06-03T22:28:45.950Z,9.00
2018-06-03T22:31:15.855Z,9.20
2018-06-03T22:33:45.667Z,8.50
2018-06-03T22:36:15.584Z,9.53
2018-06-03T22:38:45.396Z,9.60
2018-06-03T22:41:16.334Z,8.70
2018-06-03T22:43:46.248Z,9.80
2018-06-03T22:46:16.161Z,11.13
2018-06-03T22:48:46.182Z,8.60
2018-06-03T22:51:16.097Z,10.30
2018-06-03T22:53:46.005Z,9.97
2018-06-03T22:56:16.946Z,10.00
2018-06-03T22:58:47.139Z,11.23
2018-06-03T23:01:17.689Z,10.80
2018-06-03T23:03:47.731Z,10.80
2018-06-03T23:06:17.834Z,10.30
2018-06-03T23:08:47.744Z,10.03
2018-06-03T23:11:18.921Z,10.00
2018-06-03T23:13:49.021Z,11.00
2018-06-03T23:16:19.065Z,10.30
2018-06-03T23:18:49.044Z,12.13
2018-06-03T23:21:19.576Z,11.23
2018-06-03T23:23:49.176Z,11.23
2018-06-03T23:26:19.097Z,11.70
2018-06-03T23:28:49.216Z,12.10
2018-06-03T23:31:19.535Z,11.10
2018-06-03T23:33:49.566Z,10.43
2018-06-03T23:36:20.491Z,11.40
2018-06-03T23:38:50.716Z,12.20
2018-06-03T23:41:20.626Z,12.53
2018-06-03T23:43:50.749Z,13.43
2018-06-03T23:46:20.873Z,10.63
2018-06-03T23:48:51.598Z,11.83
2018-06-03T23:51:21.512Z,11.80
2018-06-03T23:53:52.566Z,13.33
2018-06-03T23:56:22.367Z,12.43
2018-06-03T23:58:52.283Z,11.30
